Terminal Aerodrome Forecast
Issued by NWS

Home | Current Version | Previous Version | Text Only | Print | Product List | Glossary On
Versions: 1 2 3 4 5 6 7 8 9 10 11 12 13 14
000
FTAK31 PAJN 281633 AAA
TAFASI
TAF AMD
PASI 281633Z 2817/2912 24005KT P6SM SCT030 OVC100
      TEMPO 2817/2819 BKN030
     FM290700 11004KT P6SM OVC080=

USA.gov is the U.S. government's official web portal to all federal, state and local government web resources and services.